createdAt,value
2019-02-24T00:01:38.949Z,0
2019-02-24T00:03:30.442Z,0
2019-02-24T00:06:30.947Z,0
2019-02-24T00:09:30.355Z,0
2019-02-24T00:12:30.807Z,0
2019-02-24T00:15:30.367Z,0
2019-02-24T00:18:30.876Z,0
2019-02-24T00:21:30.345Z,0
2019-02-24T00:24:30.792Z,0
2019-02-24T00:27:30.223Z,0
2019-02-24T00:30:30.670Z,0
2019-02-24T00:33:31.081Z,0
2019-02-24T00:36:31.113Z,0
2019-02-24T00:39:30.592Z,0
2019-02-24T00:42:30.947Z,0
2019-02-24T00:45:30.400Z,0
2019-02-24T00:48:31.140Z,0
2019-02-24T00:51:30.606Z,0
2019-02-24T00:54:31.333Z,0
2019-02-24T00:57:30.815Z,0
2019-02-24T01:00:30.378Z,0
2019-02-24T01:03:30.970Z,0
2019-02-24T01:06:30.524Z,0
2019-02-24T01:09:36.082Z,0
2019-02-24T01:12:30.662Z,0
2019-02-24T01:15:31.257Z,0
2019-02-24T01:18:31.019Z,0
2019-02-24T01:21:31.402Z,0
2019-02-24T01:24:30.753Z,0
2019-02-24T01:27:31.344Z,0
2019-02-24T01:30:30.811Z,0
2019-02-24T01:33:35.203Z,0
2019-02-24T01:36:36.040Z,0
2019-02-24T01:39:36.754Z,0
2019-02-24T01:42:32.489Z,0
2019-02-24T01:45:30.801Z,0
2019-02-24T01:48:32.468Z,0
2019-02-24T01:51:37.279Z,0
2019-02-24T01:54:31.370Z,0
2019-02-24T01:57:30.999Z,0
2019-02-24T02:00:30.591Z,0
2019-02-24T02:03:31.246Z,0
2019-02-24T02:06:30.835Z,0
2019-02-24T02:09:42.097Z,0
2019-02-24T02:12:35.785Z,0
2019-02-24T02:15:32.936Z,0
2019-02-24T02:18:35.675Z,0
2019-02-24T02:21:31.370Z,0
2019-02-24T02:24:30.766Z,0
2019-02-24T02:27:31.508Z,0
2019-02-24T02:30:30.841Z,0
2019-02-24T02:33:30.323Z,0
2019-02-24T02:36:31.204Z,0
2019-02-24T02:39:33.328Z,0
2019-02-24T02:42:31.086Z,0
2019-02-24T02:45:30.728Z,0
2019-02-24T02:48:32.190Z,0
2019-02-24T02:51:30.739Z,0
2019-02-24T02:54:31.919Z,0
2019-02-24T02:57:30.257Z,0
2019-02-24T03:00:35.839Z,0
2019-02-24T03:03:35.419Z,0
2019-02-24T03:06:43.479Z,0
2019-02-24T03:09:31.372Z,0
2019-02-24T03:12:30.791Z,0
2019-02-24T03:15:36.259Z,0
2019-02-24T03:18:30.727Z,0
2019-02-24T03:21:31.159Z,0
2019-02-24T03:24:30.716Z,0
2019-02-24T03:27:31.547Z,0
2019-02-24T03:30:31.027Z,0
2019-02-24T03:33:30.554Z,0
2019-02-24T03:36:31.174Z,0
2019-02-24T03:39:30.527Z,0
2019-02-24T03:42:31.110Z,0
2019-02-24T03:45:30.553Z,0
2019-02-24T03:48:36.104Z,0
2019-02-24T03:51:30.468Z,0
2019-02-24T03:54:31.014Z,0
2019-02-24T03:57:31.052Z,0
2019-02-24T04:00:30.897Z,0
2019-02-24T04:03:30.623Z,0
2019-02-24T04:06:31.181Z,0
2019-02-24T04:09:30.486Z,0
2019-02-24T04:12:31.003Z,0
2019-02-24T04:15:30.533Z,0
2019-02-24T04:18:31.269Z,0
2019-02-24T04:21:30.673Z,0
2019-02-24T04:24:31.102Z,0
2019-02-24T04:27:30.664Z,0
2019-02-24T04:30:31.121Z,0
2019-02-24T04:33:30.677Z,0
2019-02-24T04:36:31.322Z,0
2019-02-24T04:39:31.148Z,0
2019-02-24T04:42:30.796Z,0
2019-02-24T04:45:30.482Z,0
2019-02-24T04:48:31.080Z,0
2019-02-24T04:51:30.973Z,0
2019-02-24T04:54:30.338Z,0
2019-02-24T04:57:31.161Z,0
2019-02-24T05:00:30.827Z,0
2019-02-24T05:03:30.441Z,0
2019-02-24T05:06:30.953Z,0
2019-02-24T05:09:30.493Z,0
2019-02-24T05:12:31.170Z,0
2019-02-24T05:15:30.589Z,0
2019-02-24T05:18:31.018Z,0
2019-02-24T05:21:30.365Z,0
2019-02-24T05:24:31.060Z,0
2019-02-24T05:27:30.838Z,0
2019-02-24T05:30:30.228Z,0
2019-02-24T05:33:30.704Z,0
2019-02-24T05:36:33.709Z,0
2019-02-24T05:39:31.208Z,0
2019-02-24T05:42:30.674Z,0
2019-02-24T05:45:31.234Z,0
2019-02-24T05:48:33.531Z,1
2019-02-24T05:51:30.313Z,1
2019-02-24T05:54:30.856Z,2
2019-02-24T05:57:30.352Z,4
2019-02-24T06:00:31.193Z,8
2019-02-24T06:03:30.748Z,14
2019-02-24T06:06:31.768Z,26
2019-02-24T06:09:31.356Z,48
2019-02-24T06:12:30.876Z,85
2019-02-24T06:15:30.442Z,129
2019-02-24T06:18:31.080Z,175
2019-02-24T06:21:30.602Z,222
2019-02-24T06:24:31.341Z,290
2019-02-24T06:27:30.822Z,405
2019-02-24T06:30:30.582Z,546
2019-02-24T06:33:31.295Z,705
2019-02-24T06:36:31.222Z,904
2019-02-24T06:39:30.811Z,1166
2019-02-24T06:42:30.400Z,1352
2019-02-24T06:45:31.096Z,1620
2019-02-24T06:48:30.552Z,1822
2019-02-24T06:51:31.055Z,2119
2019-02-24T06:54:30.613Z,2595
2019-02-24T06:57:31.215Z,3071
2019-02-24T07:00:32.138Z,4050
2019-02-24T07:03:30.833Z,4423
2019-02-24T07:06:30.366Z,3860
2019-02-24T07:09:32.132Z,3387
2019-02-24T07:12:30.654Z,3549
2019-02-24T07:15:31.354Z,4223
2019-02-24T07:18:31.080Z,3932
2019-02-24T07:21:30.481Z,3908
2019-02-24T07:24:31.163Z,4035
2019-02-24T07:27:30.687Z,4326
2019-02-24T07:30:39.560Z,4323
2019-02-24T07:33:31.396Z,4119
2019-02-24T07:36:30.840Z,4268
2019-02-24T07:39:30.207Z,4257
2019-02-24T07:42:30.731Z,4442
2019-02-24T07:45:31.250Z,5508
2019-02-24T07:48:30.775Z,6568
2019-02-24T07:51:31.559Z,7315
2019-02-24T07:54:31.114Z,9278
2019-02-24T07:57:30.941Z,8727
2019-02-24T08:00:34.898Z,6396
2019-02-24T08:03:30.486Z,5975
2019-02-24T08:06:31.065Z,5957
2019-02-24T08:09:30.890Z,8188
2019-02-24T08:12:30.293Z,9448
2019-02-24T08:15:31.255Z,9224
2019-02-24T08:18:30.913Z,8878
2019-02-24T08:21:30.403Z,11081
2019-02-24T08:24:31.547Z,11402
2019-02-24T08:27:31.068Z,16190
2019-02-24T08:30:30.571Z,23173
2019-02-24T08:33:31.102Z,24258
2019-02-24T08:36:30.794Z,29312
2019-02-24T08:39:30.243Z,31366
2019-02-24T08:42:30.717Z,34827
2019-02-24T08:45:31.269Z,29120
2019-02-24T08:48:30.829Z,26794
2019-02-24T08:51:30.383Z,31574
2019-02-24T08:54:31.008Z,29819
2019-02-24T08:57:30.684Z,27418
2019-02-24T09:00:31.171Z,34803
2019-02-24T09:03:30.608Z,34580
2019-02-24T09:06:31.290Z,37369
2019-02-24T09:09:30.956Z,32797
2019-02-24T09:12:30.607Z,29403
2019-02-24T09:15:31.514Z,30097
2019-02-24T09:18:31.180Z,36072
2019-02-24T09:21:30.879Z,33926
2019-02-24T09:24:30.557Z,36084
2019-02-24T09:27:31.029Z,44215
2019-02-24T09:30:30.661Z,43924
2019-02-24T09:33:36.471Z,54612
2019-02-24T09:36:30.928Z,54612
2019-02-24T09:39:30.731Z,49117
2019-02-24T09:42:31.385Z,47707
2019-02-24T09:45:30.937Z,54612
2019-02-24T09:48:30.477Z,53522
2019-02-24T09:51:31.215Z,54612
2019-02-24T09:54:30.766Z,50925
2019-02-24T09:57:31.371Z,54612
2019-02-24T10:00:31.145Z,54612
2019-02-24T10:03:30.673Z,54612
2019-02-24T10:06:31.359Z,54612
2019-02-24T10:09:30.946Z,44949
2019-02-24T10:12:30.503Z,47238
2019-02-24T10:15:36.123Z,45028
2019-02-24T10:18:30.689Z,43938
2019-02-24T10:21:31.352Z,54612
2019-02-24T10:24:30.723Z,54612
2019-02-24T10:27:31.387Z,54612
2019-02-24T10:30:31.077Z,51841
2019-02-24T10:33:33.433Z,24943
2019-02-24T10:36:31.669Z,37546
2019-02-24T10:39:32.299Z,24822
2019-02-24T10:42:30.982Z,54612
2019-02-24T10:45:30.397Z,26310
2019-02-24T10:48:31.013Z,17439
2019-02-24T10:51:30.830Z,15668
2019-02-24T10:54:30.533Z,12911
2019-02-24T10:57:31.088Z,13889
2019-02-24T11:00:30.783Z,14395
2019-02-24T11:03:31.382Z,15863
2019-02-24T11:06:31.044Z,15776
2019-02-24T11:09:30.729Z,15630
2019-02-24T11:12:31.396Z,21839
2019-02-24T11:15:30.974Z,40757
2019-02-24T11:18:30.618Z,26422
2019-02-24T11:21:31.209Z,19078
2019-02-24T11:24:31.290Z,54612
2019-02-24T11:27:30.797Z,15904
2019-02-24T11:30:30.499Z,28102
2019-02-24T11:33:31.350Z,20568
2019-02-24T11:36:31.121Z,20482
2019-02-24T11:39:30.650Z,36342
2019-02-24T11:42:31.203Z,54612
2019-02-24T11:45:30.653Z,52748
2019-02-24T11:48:31.419Z,9463
2019-02-24T11:51:30.987Z,9401
2019-02-24T11:54:30.643Z,8988
2019-02-24T11:57:31.427Z,9115
2019-02-24T12:00:31.134Z,9260
2019-02-24T12:03:30.785Z,9582
2019-02-24T12:06:30.405Z,9853
2019-02-24T12:09:30.929Z,8498
2019-02-24T12:12:31.780Z,8502
2019-02-24T12:15:31.357Z,8478
2019-02-24T12:18:31.060Z,8438
2019-02-24T12:21:30.470Z,8327
2019-02-24T12:24:31.038Z,8310
2019-02-24T12:27:30.556Z,8263
2019-02-24T12:30:31.792Z,8158
2019-02-24T12:33:30.603Z,8058
2019-02-24T12:36:31.352Z,7498
2019-02-24T12:39:31.114Z,7362
2019-02-24T12:42:30.788Z,7825
2019-02-24T12:45:30.324Z,7715
2019-02-24T12:48:35.878Z,7470
2019-02-24T12:51:30.402Z,7238
2019-02-24T12:54:31.092Z,7117
2019-02-24T12:57:30.793Z,6993
2019-02-24T13:00:30.417Z,6902
2019-02-24T13:03:40.128Z,6804
2019-02-24T13:06:31.011Z,6702
2019-02-24T13:09:30.619Z,6620
2019-02-24T13:12:31.230Z,6568
2019-02-24T13:15:31.089Z,6498
2019-02-24T13:18:30.722Z,6432
2019-02-24T13:21:31.401Z,6368
2019-02-24T13:24:30.990Z,6318
2019-02-24T13:27:30.610Z,6292
2019-02-24T13:30:31.325Z,6258
2019-02-24T13:33:31.442Z,6225
2019-02-24T13:36:31.291Z,6190
2019-02-24T13:39:30.756Z,6164
2019-02-24T13:42:31.391Z,6133
2019-02-24T13:45:31.000Z,6094
2019-02-24T13:48:30.506Z,6068
2019-02-24T13:51:31.200Z,6018
2019-02-24T13:54:30.999Z,5951
2019-02-24T13:57:30.315Z,5147
2019-02-24T14:00:31.124Z,5409
2019-02-24T14:03:30.671Z,5354
2019-02-24T14:06:31.129Z,5273
2019-02-24T14:09:30.651Z,5178
2019-02-24T14:12:31.264Z,5112
2019-02-24T14:15:30.939Z,5004
2019-02-24T14:18:30.558Z,4902
2019-02-24T14:21:31.100Z,4813
2019-02-24T14:24:30.651Z,4651
2019-02-24T14:27:31.474Z,4624
2019-02-24T14:30:30.922Z,4339
2019-02-24T14:33:30.539Z,4150
2019-02-24T14:36:31.378Z,4300
2019-02-24T14:39:31.007Z,4192
2019-02-24T14:42:30.972Z,4078
2019-02-24T14:45:30.595Z,3956
2019-02-24T14:48:31.170Z,3843
2019-02-24T14:51:30.682Z,3735
2019-02-24T14:54:31.227Z,3626
2019-02-24T14:57:30.782Z,3513
2019-02-24T15:00:31.536Z,3422
2019-02-24T15:03:31.113Z,3332
2019-02-24T15:06:30.499Z,3232
2019-02-24T15:09:31.100Z,3143
2019-02-24T15:12:30.725Z,3058
2019-02-24T15:15:35.815Z,2978
2019-02-24T15:18:30.526Z,2886
2019-02-24T15:21:31.126Z,2810
2019-02-24T15:24:30.734Z,2732
2019-02-24T15:27:31.401Z,2656
2019-02-24T15:30:33.422Z,2572
2019-02-24T15:33:31.151Z,2495
2019-02-24T15:36:30.808Z,2423
2019-02-24T15:39:30.328Z,2350
2019-02-24T15:42:30.952Z,2287
2019-02-24T15:45:30.610Z,2212
2019-02-24T15:48:31.301Z,2378
2019-02-24T15:51:32.318Z,2298
2019-02-24T15:54:31.132Z,2214
2019-02-24T15:57:30.934Z,2127
2019-02-24T16:00:30.732Z,2049
2019-02-24T16:03:31.488Z,1913
2019-02-24T16:06:39.949Z,1809
2019-02-24T16:09:30.396Z,1773
2019-02-24T16:12:31.271Z,1696
2019-02-24T16:15:32.101Z,1611
2019-02-24T16:18:39.695Z,1518
2019-02-24T16:21:30.811Z,1419
2019-02-24T16:24:30.350Z,1328
2019-02-24T16:27:31.187Z,1235
2019-02-24T16:30:30.766Z,1133
2019-02-24T16:33:31.316Z,1032
2019-02-24T16:36:30.957Z,931
2019-02-24T16:39:30.571Z,831
2019-02-24T16:42:31.029Z,733
2019-02-24T16:45:30.691Z,619
2019-02-24T16:48:31.268Z,511
2019-02-24T16:51:31.261Z,428
2019-02-24T16:54:30.686Z,357
2019-02-24T16:57:31.428Z,286
2019-02-24T17:00:30.995Z,218
2019-02-24T17:03:35.681Z,162
2019-02-24T17:06:31.235Z,114
2019-02-24T17:09:30.755Z,79
2019-02-24T17:12:31.296Z,53
2019-02-24T17:15:30.995Z,33
2019-02-24T17:18:30.704Z,20
2019-02-24T17:21:31.361Z,12
2019-02-24T17:24:30.903Z,6
2019-02-24T17:27:32.409Z,3
2019-02-24T17:30:30.919Z,2
2019-02-24T17:33:33.579Z,1
2019-02-24T17:36:31.173Z,0
2019-02-24T17:39:30.843Z,0
2019-02-24T17:42:30.485Z,0
2019-02-24T17:45:30.923Z,0
2019-02-24T17:48:30.412Z,0
2019-02-24T17:51:37.174Z,0
2019-02-24T17:54:30.604Z,0
2019-02-24T17:57:31.130Z,0
2019-02-24T18:00:34.717Z,0
2019-02-24T18:03:39.021Z,0
2019-02-24T18:06:30.414Z,0
2019-02-24T18:09:32.536Z,0
2019-02-24T18:12:31.204Z,0
2019-02-24T18:15:30.786Z,0
2019-02-24T18:18:30.679Z,0
2019-02-24T18:21:31.067Z,0
2019-02-24T18:24:30.572Z,0
2019-02-24T18:27:31.114Z,0
2019-02-24T18:30:30.778Z,0
2019-02-24T18:33:31.511Z,0
2019-02-24T18:36:30.973Z,0
2019-02-24T18:39:30.587Z,0
2019-02-24T18:42:31.295Z,0
2019-02-24T18:45:31.001Z,0
2019-02-24T18:48:30.406Z,0
2019-02-24T18:51:31.381Z,0
2019-02-24T18:54:37.357Z,0
2019-02-24T18:57:31.684Z,0
2019-02-24T19:00:32.605Z,0
2019-02-24T19:03:31.313Z,0
2019-02-24T19:06:38.919Z,0
2019-02-24T19:09:31.020Z,0
2019-02-24T19:12:30.708Z,0
2019-02-24T19:15:31.354Z,0
2019-02-24T19:18:31.707Z,0
2019-02-24T19:21:31.461Z,0
2019-02-24T19:24:31.095Z,0
2019-02-24T19:27:30.524Z,0
2019-02-24T19:30:31.135Z,0
2019-02-24T19:33:30.854Z,0
2019-02-24T19:36:30.337Z,0
2019-02-24T19:39:31.049Z,0
2019-02-24T19:42:30.587Z,0
2019-02-24T19:45:31.155Z,0
2019-02-24T19:48:30.848Z,0
2019-02-24T19:51:30.382Z,0
2019-02-24T19:54:30.831Z,0
2019-02-24T19:57:30.217Z,0
2019-02-24T20:00:30.723Z,0
2019-02-24T20:03:31.281Z,0
2019-02-24T20:06:30.965Z,0
2019-02-24T20:09:30.531Z,0
2019-02-24T20:12:31.335Z,0
2019-02-24T20:15:31.051Z,0
2019-02-24T20:18:21.603Z,0
2019-02-24T20:21:31.063Z,0
2019-02-24T20:24:35.550Z,0
2019-02-24T20:27:31.203Z,0
2019-02-24T20:30:31.307Z,0
2019-02-24T20:33:30.735Z,0
2019-02-24T20:36:31.462Z,0
2019-02-24T20:39:31.303Z,0
2019-02-24T20:42:30.877Z,0
2019-02-24T20:45:31.860Z,0
2019-02-24T20:48:30.320Z,0
2019-02-24T20:51:30.860Z,0
2019-02-24T20:54:30.285Z,0
2019-02-24T20:57:31.077Z,0
2019-02-24T21:06:37.200Z,0
2019-02-24T21:07:05.705Z,0
2019-02-24T21:12:00.418Z,0
2019-02-24T21:13:49.179Z,0
2019-02-24T21:30:31.850Z,0
2019-02-24T21:33:30.579Z,0
2019-02-24T21:36:31.272Z,0
2019-02-24T21:39:35.902Z,0
2019-02-24T21:42:30.839Z,0
2019-02-24T21:45:30.797Z,0
2019-02-24T21:48:30.437Z,0
2019-02-24T21:51:31.288Z,0
2019-02-24T21:54:31.277Z,0
2019-02-24T21:57:30.831Z,0
2019-02-24T22:00:30.609Z,0
2019-02-24T22:03:31.403Z,0
2019-02-24T22:06:31.058Z,0
2019-02-24T22:09:30.530Z,0
2019-02-24T22:12:31.241Z,0
2019-02-24T22:15:30.956Z,0
2019-02-24T22:18:30.516Z,0
2019-02-24T22:21:31.012Z,0
2019-02-24T22:24:30.508Z,0
2019-02-24T22:27:31.330Z,0
2019-02-24T22:30:30.937Z,0
2019-02-24T22:33:30.518Z,0
2019-02-24T22:36:31.394Z,0
2019-02-24T22:39:31.072Z,0
2019-02-24T22:42:30.670Z,0
2019-02-24T22:45:32.776Z,0
2019-02-24T22:48:31.382Z,0
2019-02-24T22:51:31.063Z,0
2019-02-24T22:54:30.696Z,0
2019-02-24T22:57:31.266Z,0
2019-02-24T23:00:37.574Z,0
2019-02-24T23:03:33.607Z,0
2019-02-24T23:06:31.199Z,0
2019-02-24T23:09:30.894Z,0
2019-02-24T23:12:30.591Z,0
2019-02-24T23:15:31.264Z,0
2019-02-24T23:18:31.091Z,0
2019-02-24T23:21:30.733Z,0
2019-02-24T23:24:31.303Z,0
2019-02-24T23:27:30.984Z,0
2019-02-24T23:30:30.683Z,0
2019-02-24T23:33:31.223Z,0
2019-02-24T23:36:30.990Z,0
2019-02-24T23:39:30.532Z,0
2019-02-24T23:42:31.166Z,0
2019-02-24T23:45:30.749Z,0
2019-02-24T23:48:31.294Z,0
2019-02-24T23:51:30.896Z,0
2019-02-24T23:54:30.740Z,0
2019-02-24T23:57:31.231Z,0
